Avon, New York
Current Conditions -  °F | °C
As of 7:54 AM on Wednesday 26 Nov 2014 (Local Time) from KROC Reporting Station
Overcast Overcast  
Wind Chill: 34°   Ceiling: 2800
Heat Index: 34°   Visibility: 10mi
Dew Point: 25°   Wind: 0mph
Humidity: 70%   Direction: NA
Pressure: 30.19"   Gusts: NA
Location:  42.91°N, 77.75°W
Report Text: KROC 261254Z 00000KT 10SM OVC028 01/M04 A3019 RMK AO2 SLP234 T00111039
Loading
Personal Weather Stations






























Interactive Weather Map New forecast layout! Learn more

10-Day Weather Forecast

Advertisements
Track Severe Weather on mobile